• Join FlightAware (Why Join?)
  • Login
  • US Flag 
02:26PM EDT


 

Airport Tracker/Info


-or-


 

Live Flight TrackerFlight Track Log ✈ UAL3756 ✈ 22-Apr-2013 ✈ KMIA - KORD

Flight Track Log - Related Links

Times and Time Zones

All times are in EDT time to prevent confusion due to time zone crossing. See the UAL3756 flight status page for this flight to view local times or setup timezone preferences in your user account.

Time Position Orientation Groundspeed Altitude Reporting Facility
EDT Latitude Longitude Course Direction KTS MPH feet Rate Location/Type
11:50AM 25.7983 -80.2653 80° East 156 180 900  Level Miami Center
11:51AM 25.8056 -80.2217 80° East 215 247 1,800 1,500 Climbing Miami Center
11:52AM 25.8178 -80.1503 79° East 274 315 3,600 2,160 Climbing Miami Center
11:53AM 25.8744 -80.1358 13° North 275 316 5,900 2,580 Climbing Miami Center
11:54AM 25.9231 -80.1994 310° West 272 313 8,700 2,580 Climbing Miami Center
11:55AM 25.9631 -80.2744 301° West 278 320 11,100 1,740 Climbing Miami Center
11:56AM 26.0072 -80.3592 300° West 302 348 12,200 1,560 Climbing Miami Center
11:57AM 26.0572 -80.4506 301° West 318 366 14,300 2,520 Climbing Miami Center
11:58AM 26.1111 -80.5494 301° West 339 390 17,300 2,040 Climbing Miami Center
11:59AM 26.1975 -80.5983 333° Northwest 330 380 18,400 1,140 Climbing Miami Center
12:00PM 26.2775 -80.6542 328° Northwest 355 409 19,600 1,200 Climbing Miami Center
12:01PM 26.3781 -80.7222 329° Northwest 381 438 20,900 1,140 Climbing Miami Center
12:02PM 26.4722 -80.7903 327° Northwest 395 455 21,900 1,020 Climbing Miami Center
12:03PM 26.5708 -80.8586 328° Northwest 407 468 23,000 1,020 Climbing Miami Center
12:04PM 26.6631 -80.9200 329° Northwest 421 484 24,000 960 Climbing Miami Center
12:05PM 26.7633 -80.9933 327° Northwest 428 493 25,000 960 Climbing Miami Center
12:06PM 26.8758 -81.0764 327° Northwest 428 493 26,000 1,020 Climbing Miami Center
12:07PM 26.9803 -81.1453 330° Northwest 428 493 27,100 1,080 Climbing Miami Center
12:08PM 27.0822 -81.2192 327° Northwest 433 498 28,200 1,020 Climbing Miami Center
12:09PM 27.1867 -81.2883 330° Northwest 433 498 29,200 960 Climbing Miami Center
12:10PM 27.2889 -81.3625 327° Northwest 433 498 30,200 900 Climbing Miami Center
12:11PM 27.3928 -81.4367 328° Northwest 433 498 31,100 840 Climbing Miami Center
12:12PM 27.4950 -81.5086 328° Northwest 433 498 31,900 780 Climbing Miami Center
12:13PM 27.5969 -81.5806 328° Northwest 433 498 32,700 840 Climbing Miami Center
12:14PM 27.6886 -81.6478 327° Northwest 433 498 33,600 600 Climbing Miami Center
12:15PM 27.8028 -81.7300 328° Northwest 428 493 34,000 60 Climbing Miami Center
12:17PM 28.0669 -81.9189 328° Northwest 445 512 34,000  Level Jacksonville Center
12:18PM 28.1719 -81.9956 327° Northwest 445 512 34,000 300 Level Jacksonville Center
12:19PM 28.2828 -82.0581 334° Northwest 450 518 34,600 600 Climbing Jacksonville Center
12:20PM 28.4000 -82.1067 340° North 450 518 35,300 660 Climbing Jacksonville Center
12:21PM 28.5172 -82.1578 339° North 445 512 36,000 660 Climbing Jacksonville Center
12:22PM 28.6322 -82.2042 341° North 445 512 36,700 660 Climbing Jacksonville Center
12:23PM 28.7453 -82.2533 339° North 440 506 37,400 600 Climbing Jacksonville Center
12:24PM 28.8581 -82.2975 341° North 433 498 38,000 300 Climbing Jacksonville Center
12:25PM 28.9669 -82.3444 339° North 427 491 38,000  Level Jacksonville Center
12:26PM 29.0819 -82.3936 340° North 427 491 38,000  Level Jacksonville Center
12:27PM 29.1989 -82.4453 339° North 438 504 38,000  Level Jacksonville Center
12:28PM 29.3139 -82.4950 339° North 438 504 38,000  Level Jacksonville Center
12:29PM 29.4289 -82.5419 340° North 438 504 38,000  Level Jacksonville Center
12:30PM 29.5356 -82.5894 339° North 444 511 38,000  Level Jacksonville Center
12:31PM 29.6503 -82.6369 340° North 444 511 38,000  Level Jacksonville Center
12:32PM 29.7675 -82.6917 338° Northwest 449 517 38,000  Level Jacksonville Center
12:33PM 29.8864 -82.7442 339° North 449 517 38,000  Level Jacksonville Center
12:34PM 30.0014 -82.7942 339° North 449 517 38,000  Level Jacksonville Center
12:35PM 30.1183 -82.8397 341° North 449 517 38,000  Level Jacksonville Center
12:36PM 30.2353 -82.8903 340° North 449 517 38,000  Level Jacksonville Center
12:37PM 30.3500 -82.9408 339° North 449 517 38,000  Level Jacksonville Center
12:38PM 30.4669 -82.9914 340° North 449 517 38,000  Level Jacksonville Center
12:39PM 30.5839 -83.0447 339° North 449 517 38,000  Level Jacksonville Center
12:40PM 30.7006 -83.0931 340° North 449 517 38,000  Level Jacksonville Center
12:41PM 30.8153 -83.1467 338° Northwest 449 517 38,000  Level Jacksonville Center
12:42PM 30.9406 -83.2050 338° Northwest 444 511 38,000  Level Jacksonville Center
12:43PM 31.0572 -83.2564 339° North 444 511 38,000  Level Jacksonville Center
12:44PM 31.1719 -83.3078 339° North 444 511 38,000  Level Jacksonville Center
12:45PM 31.2908 -83.3594 340° North 449 517 38,000  Level Jacksonville Center
12:46PM 31.4075 -83.4136 338° Northwest 449 517 38,000  Level Jacksonville Center
12:48PM 31.6831 -83.5336 340° North 449 517 38,000  Level Atlanta Center
12:49PM 31.8022 -83.5867 339° North 449 517 38,000  Level Atlanta Center
12:50PM 31.9233 -83.6425 339° North 454 522 38,000  Level Atlanta Center
12:51PM 32.0425 -83.6983 338° Northwest 454 522 38,000  Level Atlanta Center
12:52PM 32.1617 -83.7542 338° Northwest 454 522 38,000  Level Atlanta Center
12:53PM 32.2808 -83.8103 338° Northwest 454 522 38,000  Level Atlanta Center
12:54PM 32.4019 -83.8642 339° North 454 522 38,000  Level Atlanta Center
12:55PM 32.5231 -83.9206 339° North 454 522 38,000  Level Atlanta Center
12:56PM 32.6419 -83.9772 338° Northwest 454 522 38,000  Level Atlanta Center
12:57PM 32.7631 -84.0314 339° North 454 522 38,000  Level Atlanta Center
12:58PM 32.8842 -84.0833 340° North 454 522 38,000  Level Atlanta Center
12:59PM 33.0031 -84.1428 337° Northwest 454 522 38,000  Level Atlanta Center
01:00PM 33.1117 -84.1950 338° Northwest 454 522 38,000  Level Atlanta Center
01:01PM 33.2306 -84.2500 339° North 459 528 38,000  Level Atlanta Center
01:02PM 33.3536 -84.3075 339° North 459 528 38,000  Level Atlanta Center
01:03PM 33.4725 -84.3625 339° North 459 528 38,000  Level Atlanta Center
01:04PM 33.6036 -84.4228 339° North 459 528 38,000  Level Atlanta Center
01:05PM 33.7456 -84.4536 350° North 482 555 38,000  Level Atlanta Center
01:06PM 33.8686 -84.4667 355° North 469 540 38,000  Level Atlanta Center
01:07PM 34.0022 -84.4822 354° North 469 540 38,000  Level Atlanta Center
01:08PM 34.1314 -84.4981 354° North 479 551 38,000  Level Atlanta Center
01:09PM 34.2650 -84.5114 355° North 498 573 38,000  Level Atlanta Center
01:10PM 34.3964 -84.5272 354° North 488 562 38,000  Level Atlanta Center
01:11PM 34.5361 -84.5431 355° North 488 562 38,000  Level Atlanta Center
01:12PM 34.6781 -84.5642 353° North 482 555 38,000  Level Atlanta Center
01:13PM 34.8136 -84.5803 354° North 477 549 38,000  Level Atlanta Center
01:14PM 34.9514 -84.5989 354° North 482 555 38,000  Level Atlanta Center
01:15PM 35.0869 -84.6150 354° North 487 560 38,000  Level Atlanta Center
01:16PM 35.2225 -84.6311 354° North 487 560 38,000  Level Atlanta Center
01:17PM 35.3600 -84.6475 354° North 487 560 38,000  Level Atlanta Center
01:18PM 35.4933 -84.6636 354° North 482 555 38,000  Level Atlanta Center
01:19PM 35.6289 -84.6800 354° North 482 555 38,000  Level Atlanta Center
01:20PM 35.7644 -84.6964 354° North 482 555 38,000  Level Atlanta Center
01:21PM 35.9022 -84.7103 355° North 482 555 38,000  Level Atlanta Center
01:22PM 36.0375 -84.7294 353° North 482 555 38,000  Level Atlanta Center
01:24PM 36.1878 -84.7497 354° North 485 558 38,000  Level Indianapolis Center
01:25PM 36.3214 -84.7672 354° North 483 556 38,000  Level Indianapolis Center
01:26PM 36.4556 -84.7692 359° North 486 559 38,000  Level Indianapolis Center
01:27PM 36.5894 -84.7292 13° North 494 568 38,000  Level Indianapolis Center
01:28PM 36.7247 -84.6900 13° North 497 572 38,000  Level Indianapolis Center
01:29PM 36.8594 -84.6508 13° North 497 572 38,000  Level Indianapolis Center
01:30PM 37.0203 -84.6022 14° North 496 571 38,000  Level Indianapolis Center
01:31PM 37.1514 -84.5633 13° North 498 573 38,000  Level Indianapolis Center
01:32PM 37.2872 -84.5236 13° North 500 575 38,000  Level Indianapolis Center
01:33PM 37.4200 -84.4850 13° North 493 567 38,000  Level Indianapolis Center
01:34PM 37.5558 -84.4586 North 494 568 38,000  Level Indianapolis Center
01:35PM 37.6839 -84.4961 347° North 472 543 38,000  Level Indianapolis Center
01:36PM 37.8272 -84.5547 342° North 463 533 38,000  Level Indianapolis Center
01:37PM 37.9506 -84.6050 342° North 462 532 38,000 -300 Level Indianapolis Center
01:38PM 38.0733 -84.6550 342° North 464 534 37,400 -840 Descending Indianapolis Center
01:39PM 38.2036 -84.7042 343° North 482 555 36,400 -720 Descending Indianapolis Center
01:40PM 38.3303 -84.7581 342° North 479 551 36,000 -240 Descending Indianapolis Center
01:41PM 38.4578 -84.8111 342° North 478 550 36,000  Level Indianapolis Center
01:42PM 38.6058 -84.8731 342° North 478 550 36,000 -120 Level Indianapolis Center
01:43PM 38.7194 -84.9183 343° North 478 550 35,800 -660 Descending Indianapolis Center
01:44PM 38.8475 -84.9725 342° North 481 554 34,700 -900 Descending Indianapolis Center
01:45PM 38.9736 -85.0264 342° North 477 549 34,000 -360 Descending Indianapolis Center
01:46PM 39.1217 -85.0881 342° North 468 539 34,000 -420 Level Indianapolis Center
01:47PM 39.2467 -85.1408 342° North 470 541 33,200 -1,500 Descending Indianapolis Center
01:48PM 39.3728 -85.1933 342° North 470 541 30,900 -2,220 Descending Indianapolis Center
01:49PM 39.4950 -85.2464 341° North 460 529 28,700 -960 Descending Indianapolis Center
01:51PM 39.6369 -85.3016 341° North  Level FlightAware Approximate
01:51PM 39.7392 -85.3511 341° North 461 531 28,000  Level Indianapolis Center
01:52PM 39.8625 -85.4039 342° North 462 532 27,800 -540 Descending Indianapolis Center
01:53PM 39.9808 -85.4547 342° North 448 516 27,000 -780 Descending Indianapolis Center
01:54PM 40.1014 -85.5072 342° North 449 517 26,200 -540 Descending Indianapolis Center
01:55PM 40.2211 -85.5589 342° North 450 518 25,900 -660 Descending Indianapolis Center
01:56PM 40.3422 -85.6122 341° North 452 520 24,900 -960 Descending Indianapolis Center
01:57PM 40.4819 -85.6739 341° North 449 517 24,000 -900 Descending Indianapolis Center
01:59PM 40.5708 -85.7847 317° Northwest 448 516 23,100 -960 Descending Chicago Center
02:00PM 40.6436 -85.9114 307° West 437 503 22,000 -540 Descending Chicago Center
02:01PM 40.7150 -86.0364 307° West 431 496 22,000  Level Chicago Center
02:02PM 40.7867 -86.1617 307° West 428 493 22,000  Level Chicago Center
02:03PM 40.8581 -86.2869 307° West 428 493 22,000  Level Chicago Center
02:04PM 40.9297 -86.4139 307° West 428 493 22,000 -960 Level Chicago Center
02:05PM 41.0144 -86.5639 307° West 425 489 20,100 -1,920 Descending Chicago Center
02:06PM 41.0825 -86.6869 306° West 418 481 18,100 -1,800 Descending Chicago Center
02:07PM 41.1486 -86.8033 307° West 413 475 16,500 -1,800 Descending Chicago Center
02:08PM 41.2156 -86.9211 307° West 404 465 14,500 -1,980 Descending Chicago Center
02:09PM 41.2794 -87.0394 306° West 396 456 12,500 -1,740 Descending Chicago Center
02:10PM 41.3561 -87.1772 307° West 391 450 11,000 -780 Descending Chicago Center
02:11PM 41.4167 -87.2667 312° West 351 404 11,100 -420 Climbing Chicago TRACON
02:12PM 41.5000 -87.3500 323° Northwest 342 394 10,300 -600 Descending Chicago TRACON
02:13PM 41.5667 -87.4333 317° Northwest 345 397 10,000 -180 Descending Chicago TRACON
02:14PM 41.6333 -87.5167 317° Northwest 344 396 10,000  Level Chicago TRACON
02:15PM 41.7167 -87.5833 329° Northwest 342 394 10,000 -420 Level Chicago TRACON
02:16PM 41.8000 -87.6333 336° Northwest 293 337 9,200 -1,080 Descending Chicago TRACON
02:17PM 41.8667 -87.7000 323° Northwest 289 333 7,900 -1,080 Descending Chicago TRACON
02:18PM 41.9333 -87.7333 340° North 265 305 7,100 -540 Descending Chicago TRACON
02:19PM 42.0000 -87.7333 360° North 244 281 6,900 -780 Descending Chicago TRACON
02:20PM 42.0500 -87.6833 37° Northeast 229 264 5,500 -1,200 Descending Chicago TRACON
02:21PM 42.1000 -87.6667 14° North 241 277 4,500 -1,140 Descending Chicago TRACON
02:22PM 42.1333 -87.7333 304° West 188 216 3,300 -1,020 Descending Chicago TRACON
02:22PM 42.1289 -87.7547 254° West 206 237 3,100 -360 Descending Chicago Center
02:23PM 42.1000 -87.7833 216° Southwest 170 196 3,000 -420 Descending Chicago TRACON
02:24PM 42.0667 -87.8167 217° Southwest 167 192 2,500 -720 Descending Chicago TRACON
02:25PM 42.0333 -87.8667 228° Southwest 142 163 1,600 -840 Descending Chicago TRACON
02:26PM 42.0000 -87.8833 200° South 136 157 1,000 -720 Descending Chicago TRACON
02:28PM 41.9817 -87.9067 243° Southwest  Level Estimated